Main page
METAR-TAF:

METAR-TAF

Airports :

Christchurch, New Zealand

Christchurch International Airport

latitude: 43-29S, longitude: 172-33E, elevation: 38 m

Current weather observation

The report was made 37 minutes ago, at 22:30 UTC
Wind 2 kt from the South/Southwest
Temperature 13°C
Humidity 62%
Pressure 1024 hPa
Visibility 10 km or more

METAR: NZCH 232230Z AUTO 21002KT 9999 NCD 13/06 Q1024 NOSIG

Time: 11:07 (23:07 UTC)

Forecast

The report was made 5 hours and 59 minutes ago, at 17:08 UTC
Forecast valid from 23 at 18 UTC to 24 at 18 UTC
Wind 2 kt from variable directions
Visibility 10 km or more
no clouds below 1500 m and no cumulonimbus
Becoming
from 24 at 01 UTC to 24 at 03 UTC
Wind 10 kt from the North/Northeast
Becoming
from 24 at 08 UTC to 24 at 10 UTC
Wind 2 kt from variable directions
Probability 30%
from 24 at 12 UTC to 24 at 18 UTC
Visibility: 0300 m
fog

TAF: NZCH 231708Z 2318/2418 VRB02KT CAVOK BECMG 2401/2403 03010KT BECMG 2408/2410 VRB02KT PROB30 2412/2418 0300 FG

Weather observations and forecasts of more than 4000 airports (METAR and TAF reports).

The available stations are represented by yellow and red dots on the map.

Hover mouse over dot to see the name of the station.

Then click to see weather observations and forecasts.

To change the map : click on the green buttons with a black cross to zoom in, on the green button with a dash to zoom out, or on the green arrows for adjacent maps.


METAR-TAF: